createdAt,value
2019-05-10T00:00:18.535Z,967.4
2019-05-10T00:01:19.838Z,967.3
2019-05-10T00:02:21.153Z,967.2
2019-05-10T00:03:22.415Z,967.4
2019-05-10T00:04:23.672Z,967.4
2019-05-10T00:05:24.931Z,967.5
2019-05-10T00:06:26.235Z,967.4
2019-05-10T00:07:27.507Z,967.5
2019-05-10T00:08:28.767Z,967.5
2019-05-10T00:09:30.002Z,967.5
2019-05-10T00:10:31.228Z,967.5
2019-05-10T00:11:32.557Z,967.5
2019-05-10T00:12:33.817Z,967.6
2019-05-10T00:13:35.050Z,967.6
2019-05-10T00:14:36.310Z,967.6
2019-05-10T00:15:37.537Z,967.7
2019-05-10T00:16:38.824Z,967.6
2019-05-10T00:17:40.187Z,967.7
2019-05-10T00:18:41.424Z,967.7
2019-05-10T00:19:42.677Z,967.7
2019-05-10T00:20:44.290Z,967.8
2019-05-10T00:21:45.590Z,967.7
2019-05-10T00:22:46.853Z,967.8
2019-05-10T00:23:48.323Z,967.7
2019-05-10T00:25:05.191Z,967.7
2019-05-10T00:26:06.598Z,967.7
2019-05-10T00:27:07.902Z,967.8
2019-05-10T00:28:09.162Z,967.8
2019-05-10T00:29:10.455Z,967.7
2019-05-10T00:30:11.728Z,967.8
2019-05-10T00:31:12.991Z,967.7
2019-05-10T00:32:14.383Z,967.8
2019-05-10T00:33:15.639Z,967.8
2019-05-10T00:34:16.883Z,967.9
2019-05-10T00:35:19.329Z,967.9
2019-05-10T00:36:20.578Z,967.9
2019-05-10T00:37:21.839Z,967.9
2019-05-10T00:38:23.083Z,967.9
2019-05-10T00:39:25.173Z,967.8
2019-05-10T00:40:26.409Z,967.9
2019-05-10T00:41:27.649Z,967.9
2019-05-10T00:42:28.945Z,967.9
2019-05-10T00:43:30.180Z,967.9
2019-05-10T00:44:31.448Z,968
2019-05-10T00:45:32.709Z,968
2019-05-10T00:46:33.963Z,968
2019-05-10T00:47:35.237Z,968.1
2019-05-10T00:48:36.524Z,968
2019-05-10T00:49:37.852Z,968.1
2019-05-10T00:50:42.683Z,968.1
2019-05-10T00:51:43.937Z,968.1
2019-05-10T00:52:45.220Z,968.1
2019-05-10T00:53:46.452Z,968
2019-05-10T00:54:47.691Z,968
2019-05-10T00:55:48.947Z,968
2019-05-10T00:56:50.183Z,968.2
2019-05-10T00:57:51.583Z,968.2
2019-05-10T00:58:52.837Z,968.2
2019-05-10T00:59:54.082Z,968.2
2019-05-10T01:00:55.337Z,968.2
2019-05-10T01:01:56.594Z,968.2
2019-05-10T01:02:58.101Z,968.1
2019-05-10T01:04:02.057Z,968.1
2019-05-10T01:05:03.309Z,968.2
2019-05-10T01:06:04.619Z,968.2
2019-05-10T01:07:05.877Z,968.2
2019-05-10T01:08:07.163Z,968.1
2019-05-10T01:09:08.411Z,968.1
2019-05-10T01:10:09.691Z,968.2
2019-05-10T01:11:11.258Z,968.2
2019-05-10T01:12:12.513Z,968.1
2019-05-10T01:13:13.855Z,968
2019-05-10T01:14:15.884Z,968.2
2019-05-10T01:15:17.123Z,968.3
2019-05-10T01:16:18.358Z,968.2
2019-05-10T01:17:19.592Z,968.3
2019-05-10T01:18:20.858Z,968.2
2019-05-10T01:19:22.110Z,968.3
2019-05-10T01:20:23.373Z,968.2
2019-05-10T01:21:27.715Z,968.2
2019-05-10T01:22:28.968Z,968.2
2019-05-10T01:23:30.262Z,968.2
2019-05-10T01:24:31.521Z,968.2
2019-05-10T01:25:36.190Z,968.3
2019-05-10T01:26:37.422Z,968.3
2019-05-10T01:27:38.691Z,968.3
2019-05-10T01:28:39.987Z,968.3
2019-05-10T01:29:41.225Z,968.2
2019-05-10T01:30:42.473Z,968.3
2019-05-10T01:31:43.693Z,968.3
2019-05-10T01:32:45.210Z,968.4
2019-05-10T01:33:46.491Z,968.4
2019-05-10T01:34:47.723Z,968.3
2019-05-10T01:35:49.293Z,968.4
2019-05-10T01:36:52.637Z,968.4
2019-05-10T01:37:54.237Z,968.4
2019-05-10T01:38:55.489Z,968.5
2019-05-10T01:40:00.261Z,968.4
2019-05-10T01:41:01.495Z,968.5
2019-05-10T01:42:02.774Z,968.5
2019-05-10T01:43:04.033Z,968.3
2019-05-10T01:44:05.615Z,968.4
2019-05-10T01:45:06.831Z,968.4
2019-05-10T01:46:08.093Z,968.4
2019-05-10T01:47:09.387Z,968.5
2019-05-10T01:48:10.631Z,968.5
2019-05-10T01:49:11.917Z,968.4
2019-05-10T01:50:13.173Z,968.4
2019-05-10T01:51:14.679Z,968.5
2019-05-10T01:52:15.929Z,968.5
2019-05-10T01:53:17.215Z,968.5
2019-05-10T01:54:18.491Z,968.5
2019-05-10T01:55:19.751Z,968.5
2019-05-10T01:56:21.023Z,968.6
2019-05-10T01:57:22.287Z,968.5
2019-05-10T01:58:23.564Z,968.5
2019-05-10T01:59:24.877Z,968.6
2019-05-10T02:00:26.819Z,968.6
2019-05-10T02:01:28.106Z,968.7
2019-05-10T02:02:29.373Z,968.6
2019-05-10T02:03:30.634Z,968.6
2019-05-10T02:04:31.919Z,968.7
2019-05-10T02:05:33.207Z,968.7
2019-05-10T02:06:37.349Z,968.7
2019-05-10T02:07:38.681Z,968.6
2019-05-10T02:08:39.974Z,968.6
2019-05-10T02:09:41.271Z,968.6
2019-05-10T02:10:42.500Z,968.6
2019-05-10T02:11:43.731Z,968.6
2019-05-10T02:12:44.967Z,968.7
2019-05-10T02:13:46.215Z,968.6
2019-05-10T02:14:47.501Z,968.7
2019-05-10T02:15:48.794Z,968.6
2019-05-10T02:16:50.296Z,968.6
2019-05-10T02:17:51.555Z,968.7
2019-05-10T02:18:52.828Z,968.6
2019-05-10T02:19:54.137Z,968.6
2019-05-10T02:20:55.643Z,968.7
2019-05-10T02:21:56.897Z,968.7
2019-05-10T02:22:58.161Z,968.9
2019-05-10T02:23:59.424Z,968.8
2019-05-10T02:25:00.717Z,968.8
2019-05-10T02:26:10.517Z,968.8
2019-05-10T02:27:11.738Z,968.9
2019-05-10T02:28:12.970Z,968.8
2019-05-10T02:29:14.227Z,968.9
2019-05-10T02:30:15.523Z,968.9
2019-05-10T02:31:22.209Z,968.8
2019-05-10T02:32:23.575Z,968.9
2019-05-10T02:33:24.867Z,968.9
2019-05-10T02:34:26.102Z,968.9
2019-05-10T02:35:27.456Z,968.8
2019-05-10T02:36:28.713Z,968.9
2019-05-10T02:37:30.002Z,968.9
2019-05-10T02:38:31.235Z,969
2019-05-10T02:39:32.526Z,969
2019-05-10T02:40:33.809Z,969
2019-05-10T02:41:35.073Z,968.9
2019-05-10T02:42:36.310Z,968.9
2019-05-10T02:43:37.565Z,969
2019-05-10T02:44:38.830Z,969.1
2019-05-10T02:45:40.363Z,969
2019-05-10T02:46:41.607Z,969
2019-05-10T02:47:42.859Z,969
2019-05-10T02:48:44.114Z,968.9
2019-05-10T02:49:45.354Z,969
2019-05-10T02:50:46.658Z,969.1
2019-05-10T02:51:47.908Z,969.1
2019-05-10T02:52:49.157Z,969.1
2019-05-10T02:53:50.395Z,969.1
2019-05-10T02:54:51.636Z,969.1
2019-05-10T02:55:52.918Z,969
2019-05-10T02:56:54.187Z,969
2019-05-10T02:57:55.573Z,969
2019-05-10T02:58:56.870Z,969
2019-05-10T03:00:01.134Z,968.9
2019-05-10T03:01:02.464Z,968.9
2019-05-10T03:02:03.778Z,969.1
2019-05-10T03:03:05.032Z,969
2019-05-10T03:04:06.297Z,969
2019-05-10T03:05:07.589Z,969.1
2019-05-10T03:06:11.208Z,969.1
2019-05-10T03:07:12.443Z,969.1
2019-05-10T03:08:13.703Z,969
2019-05-10T03:09:14.936Z,969
2019-05-10T03:10:16.207Z,969.1
2019-05-10T03:11:17.477Z,969.1
2019-05-10T03:12:18.711Z,969.1
2019-05-10T03:13:19.988Z,969
2019-05-10T03:14:21.285Z,969.1
2019-05-10T03:15:22.551Z,969.2
2019-05-10T03:16:25.117Z,968.9
2019-05-10T03:17:26.379Z,969.1
2019-05-10T03:18:27.617Z,969.3
2019-05-10T03:19:28.867Z,969.3
2019-05-10T03:20:30.105Z,969.3
2019-05-10T03:21:33.445Z,969.3
2019-05-10T03:22:37.298Z,969.4
2019-05-10T03:23:38.581Z,969.3
2019-05-10T03:24:39.824Z,968.7
2019-05-10T03:25:41.075Z,969.3
2019-05-10T03:26:51.917Z,969.4
2019-05-10T03:27:53.212Z,969.4
2019-05-10T03:28:54.460Z,969.4
2019-05-10T03:29:55.716Z,969.3
2019-05-10T03:30:58.499Z,969.3
2019-05-10T03:31:59.843Z,969.3
2019-05-10T03:33:01.086Z,969.4
2019-05-10T03:34:02.371Z,969.4
2019-05-10T03:35:03.733Z,969.4
2019-05-10T03:36:05.005Z,969.3
2019-05-10T03:37:06.300Z,969.3
2019-05-10T03:38:07.538Z,969.4
2019-05-10T03:39:08.807Z,969.4
2019-05-10T03:40:10.076Z,969.5
2019-05-10T03:41:11.333Z,969.5
2019-05-10T03:42:12.640Z,969.5
2019-05-10T03:43:13.903Z,969.4
2019-05-10T03:44:15.166Z,969.4
2019-05-10T03:45:16.420Z,969.4
2019-05-10T03:46:17.748Z,969.3
2019-05-10T03:47:19.053Z,969.5
2019-05-10T03:48:20.314Z,969.5
2019-05-10T03:49:21.552Z,969.4
2019-05-10T03:50:22.823Z,969.3
2019-05-10T03:51:24.056Z,969.4
2019-05-10T03:52:25.349Z,969.4
2019-05-10T03:53:29.662Z,969.4
2019-05-10T03:54:30.987Z,969.4
2019-05-10T03:55:32.288Z,969.4
2019-05-10T03:56:33.602Z,969.4
2019-05-10T03:57:34.954Z,969.4
2019-05-10T03:58:36.227Z,969.4
2019-05-10T03:59:37.495Z,969.5
2019-05-10T04:00:38.738Z,969.5
2019-05-10T04:01:40.374Z,969.5
2019-05-10T04:02:41.694Z,969.5
2019-05-10T04:03:43.164Z,969.5
2019-05-10T04:04:44.425Z,969.6
2019-05-10T04:05:45.678Z,969.6
2019-05-10T04:06:46.944Z,969.6
2019-05-10T04:07:48.225Z,969.7
2019-05-10T04:08:49.502Z,969.8
2019-05-10T04:09:50.760Z,969.7
2019-05-10T04:10:52.036Z,969.7
2019-05-10T04:11:53.366Z,969.7
2019-05-10T04:12:54.656Z,969.7
2019-05-10T04:13:55.968Z,969.7
2019-05-10T04:14:57.214Z,969.7
2019-05-10T04:15:58.470Z,969.8
2019-05-10T04:17:02.200Z,969.8
2019-05-10T04:18:03.568Z,969.8
2019-05-10T04:19:04.823Z,969.8
2019-05-10T04:20:06.064Z,969.7
2019-05-10T04:21:07.384Z,969.7
2019-05-10T04:22:08.629Z,969.9
2019-05-10T04:23:12.677Z,969.8
2019-05-10T04:24:13.971Z,969.8
2019-05-10T04:25:15.223Z,969.8
2019-05-10T04:26:16.472Z,969.8
2019-05-10T04:27:33.352Z,969.8
2019-05-10T04:28:34.826Z,969.8
2019-05-10T04:29:36.142Z,969.8
2019-05-10T04:30:37.387Z,969.9
2019-05-10T04:31:38.639Z,969.8
2019-05-10T04:32:39.968Z,969.7
2019-05-10T04:33:41.286Z,969.8
2019-05-10T04:34:42.554Z,969.9
2019-05-10T04:35:43.934Z,970
2019-05-10T04:36:48.200Z,969.8
2019-05-10T04:37:49.450Z,969.9
2019-05-10T04:38:53.040Z,970
2019-05-10T04:39:54.295Z,969.8
2019-05-10T04:40:55.560Z,969.8
2019-05-10T04:41:57.263Z,969.8
2019-05-10T04:42:58.553Z,969.9
2019-05-10T04:43:59.861Z,969.9
2019-05-10T04:45:01.119Z,970
2019-05-10T04:46:02.394Z,970.1
2019-05-10T04:47:03.654Z,970
2019-05-10T04:48:04.911Z,970.1
2019-05-10T04:49:06.244Z,970
2019-05-10T04:50:07.472Z,970
2019-05-10T04:51:08.758Z,970
2019-05-10T04:52:10.025Z,970.1
2019-05-10T04:53:11.318Z,970.1
2019-05-10T04:54:12.687Z,969.9
2019-05-10T04:55:16.709Z,970
2019-05-10T04:56:17.950Z,970
2019-05-10T04:57:19.220Z,970.1
2019-05-10T04:58:20.477Z,970.1
2019-05-10T04:59:21.775Z,970
2019-05-10T05:00:23.031Z,970.1
2019-05-10T05:01:24.302Z,970
2019-05-10T05:02:25.571Z,970.1
2019-05-10T05:03:26.850Z,970
2019-05-10T05:04:28.169Z,970.1
2019-05-10T05:05:29.422Z,970.2
2019-05-10T05:06:30.680Z,970.1
2019-05-10T05:07:31.925Z,970.3
2019-05-10T05:08:33.201Z,970.2
2019-05-10T05:09:34.483Z,970.3
2019-05-10T05:10:35.768Z,970.2
2019-05-10T05:11:40.119Z,970.4
2019-05-10T05:12:44.143Z,970.3
2019-05-10T05:13:48.049Z,970.3
2019-05-10T05:14:49.331Z,970.2
2019-05-10T05:15:50.614Z,970.1
2019-05-10T05:16:51.897Z,970.3
2019-05-10T05:17:53.136Z,970.2
2019-05-10T05:18:57.121Z,970.2
2019-05-10T05:19:58.473Z,970.2
2019-05-10T05:21:00.024Z,970.3
2019-05-10T05:22:01.545Z,970.3
2019-05-10T05:23:02.803Z,970.3
2019-05-10T05:24:04.325Z,970.3
2019-05-10T05:25:07.559Z,970.3
2019-05-10T05:26:08.811Z,970.4
2019-05-10T05:27:10.070Z,970.4
2019-05-10T05:28:11.350Z,970.1
2019-05-10T05:29:12.628Z,970.3
2019-05-10T05:30:13.975Z,970.4
2019-05-10T05:31:15.243Z,970.3
2019-05-10T05:32:16.549Z,970.3
2019-05-10T05:33:23.854Z,970.4
2019-05-10T05:34:28.066Z,970.4
2019-05-10T05:35:29.371Z,970.3
2019-05-10T05:37:39.985Z,970.4
2019-05-10T05:38:49.325Z,970.5
2019-05-10T05:39:50.825Z,970.3
2019-05-10T05:40:52.325Z,970.4
2019-05-10T05:41:57.638Z,970.5
2019-05-10T05:43:08.013Z,970.5
2019-05-10T05:44:09.616Z,970.5
2019-05-10T05:45:10.889Z,970.4
2019-05-10T05:46:15.206Z,970.4
2019-05-10T05:47:16.465Z,970.3
2019-05-10T05:48:39.421Z,970.5
2019-05-10T05:49:41.293Z,970.4
2019-05-10T05:50:42.536Z,970.5
2019-05-10T05:51:43.854Z,970.4
2019-05-10T05:52:50.054Z,970.5
2019-05-10T05:53:56.466Z,970.5
2019-05-10T05:54:59.901Z,970.5
2019-05-10T05:56:13.001Z,970.4
2019-05-10T05:57:27.444Z,970.5
2019-05-10T05:58:32.301Z,970.4
2019-05-10T05:59:33.580Z,970.5
2019-05-10T06:00:44.489Z,970.4
2019-05-10T06:01:49.610Z,970.3
2019-05-10T06:02:50.965Z,970.5
2019-05-10T06:03:52.394Z,970.5
2019-05-10T06:04:53.655Z,970.5
2019-05-10T06:05:55.166Z,970.5
2019-05-10T06:07:00.558Z,970.5
2019-05-10T06:08:02.717Z,970.5
2019-05-10T06:09:06.385Z,970.4
2019-05-10T06:10:19.752Z,970.6
2019-05-10T06:11:21.303Z,970.4
2019-05-10T06:12:22.543Z,970.6
2019-05-10T06:13:32.150Z,970.5
2019-05-10T06:14:33.897Z,970.4
2019-05-10T06:15:35.145Z,970.5
2019-05-10T06:16:36.380Z,970.5
2019-05-10T06:17:37.718Z,970.5
2019-05-10T06:18:47.189Z,970.5
2019-05-10T06:19:52.962Z,970.5
2019-05-10T06:20:54.219Z,970.5
2019-05-10T06:22:04.316Z,970.6
2019-05-10T06:23:07.971Z,970.3
2019-05-10T06:24:15.788Z,970.6
2019-05-10T06:25:17.575Z,970.6
2019-05-10T06:26:28.927Z,970.6
2019-05-10T06:27:30.220Z,970.6
2019-05-10T06:29:03.250Z,970.7
2019-05-10T06:30:05.189Z,970.8
2019-05-10T06:31:06.679Z,970.2
2019-05-10T06:32:07.950Z,970.9
2019-05-10T06:33:13.531Z,970.8
2019-05-10T06:34:14.809Z,970.8
2019-05-10T06:35:20.848Z,970.7
2019-05-10T06:36:22.367Z,970.9
2019-05-10T06:37:23.649Z,970.9
2019-05-10T06:38:24.922Z,970.8
2019-05-10T06:39:28.206Z,970.9
2019-05-10T06:40:46.280Z,970.9
2019-05-10T06:42:56.438Z,970.9
2019-05-10T06:43:57.713Z,970.8
2019-05-10T06:45:04.306Z,970.9
2019-05-10T06:46:11.728Z,970.8
2019-05-10T06:47:21.292Z,970.8
2019-05-10T06:48:32.997Z,970.7
2019-05-10T06:49:34.840Z,970.8
2019-05-10T06:50:39.383Z,970.8
2019-05-10T06:51:48.930Z,970.8
2019-05-10T06:52:52.910Z,970.9
2019-05-10T06:53:54.737Z,970.9
2019-05-10T06:54:59.382Z,970.9
2019-05-10T06:56:00.642Z,970.9
2019-05-10T06:57:02.705Z,971
2019-05-10T06:58:03.996Z,971.1
2019-05-10T06:59:14.165Z,971
2019-05-10T07:00:20.293Z,971.1
2019-05-10T07:01:22.774Z,971.1
2019-05-10T07:02:31.825Z,971.1
2019-05-10T07:03:33.614Z,971
2019-05-10T07:04:41.215Z,971.1
2019-05-10T07:05:45.669Z,971.1
2019-05-10T07:06:46.939Z,971.1
2019-05-10T07:07:48.342Z,971.2
2019-05-10T07:08:59.383Z,971.3
2019-05-10T07:10:18.533Z,971.3
2019-05-10T07:11:20.608Z,971.3
2019-05-10T07:12:21.908Z,971.2
2019-05-10T07:13:28.690Z,971.1
2019-05-10T07:14:29.958Z,971.1
2019-05-10T07:15:35.614Z,971.4
2019-05-10T07:16:46.349Z,971.4
2019-05-10T07:17:48.301Z,971.1
2019-05-10T07:18:49.618Z,971.1
2019-05-10T07:19:55.448Z,971.1
2019-05-10T07:21:06.545Z,970.9
2019-05-10T07:22:08.425Z,971
2019-05-10T07:23:09.746Z,971
2019-05-10T07:24:11.446Z,971.1
2019-05-10T07:25:12.920Z,971
2019-05-10T07:26:26.445Z,971
2019-05-10T07:27:27.951Z,971.1
2019-05-10T07:28:29.276Z,971.1
2019-05-10T07:29:41.537Z,971.3
2019-05-10T07:30:43.603Z,971.4
2019-05-10T07:31:44.970Z,971.4
2019-05-10T07:32:54.501Z,971.2
2019-05-10T07:33:56.044Z,971.2
2019-05-10T07:35:02.310Z,971
2019-05-10T07:36:20.527Z,971
2019-05-10T07:37:23.543Z,971.1
2019-05-10T07:38:32.746Z,971.3
2019-05-10T07:39:34.299Z,971.2
2019-05-10T07:40:35.612Z,971.2
2019-05-10T07:41:37.284Z,971.2
2019-05-10T07:42:45.405Z,971.3
2019-05-10T07:43:50.097Z,971.4
2019-05-10T07:44:54.038Z,971.4
2019-05-10T07:46:06.853Z,971.6
2019-05-10T07:47:10.027Z,971.3
2019-05-10T07:48:11.296Z,971.1
2019-05-10T07:49:12.536Z,971.2
2019-05-10T07:50:13.804Z,971.3
2019-05-10T07:51:15.348Z,971.5
2019-05-10T07:52:16.614Z,971.6
2019-05-10T07:53:25.155Z,971.6
2019-05-10T07:54:26.604Z,971.5
2019-05-10T07:55:30.603Z,971.5
2019-05-10T07:56:32.130Z,971.4
2019-05-10T07:57:33.416Z,971.4
2019-05-10T07:58:44.773Z,971.3
2019-05-10T08:00:03.420Z,971.3
2019-05-10T08:01:05.065Z,971.4
2019-05-10T08:02:14.816Z,971.4
2019-05-10T08:03:24.128Z,971.4
2019-05-10T08:04:33.622Z,971.5
2019-05-10T08:05:39.881Z,971
2019-05-10T08:06:51.692Z,971.2
2019-05-10T08:07:53.228Z,971.4
2019-05-10T08:09:01.672Z,971.4
2019-05-10T08:10:05.772Z,971.6
2019-05-10T08:11:10.226Z,971.6
2019-05-10T08:12:13.716Z,971.4
2019-05-10T08:13:21.055Z,971.3
2019-05-10T08:14:28.328Z,971.3
2019-05-10T08:15:35.246Z,971.5
2019-05-10T08:16:38.521Z,971.5
2019-05-10T08:17:45.637Z,971.3
2019-05-10T08:18:49.717Z,971.2
2019-05-10T08:19:51.603Z,971.4
2019-05-10T08:21:03.113Z,971.4
2019-05-10T08:22:15.368Z,971.5
2019-05-10T08:23:23.577Z,971.3
2019-05-10T08:24:35.855Z,971.3
2019-05-10T08:25:47.323Z,971
2019-05-10T08:26:49.155Z,971.2
2019-05-10T08:27:55.367Z,971.3
2019-05-10T08:28:57.020Z,971.2
2019-05-10T08:30:26.128Z,971.2
2019-05-10T08:31:45.396Z,971.5
2019-05-10T08:32:48.083Z,971.2
2019-05-10T08:33:58.923Z,971.2
2019-05-10T08:35:04.826Z,971.3
2019-05-10T08:36:12.178Z,971.1
2019-05-10T08:37:17.816Z,971.4
2019-05-10T08:38:27.457Z,971.5
2019-05-10T08:39:49.418Z,971.5
2019-05-10T08:40:53.846Z,971.3
2019-05-10T08:42:32.410Z,971.4
2019-05-10T08:43:42.788Z,971.5
2019-05-10T08:44:46.028Z,971.5
2019-05-10T08:45:52.391Z,971.6
2019-05-10T08:46:53.833Z,971.5
2019-05-10T08:48:06.782Z,971.6
2019-05-10T08:49:09.293Z,971.6
2019-05-10T08:50:43.798Z,971.4
2019-05-10T08:51:52.202Z,971.4
2019-05-10T08:53:02.125Z,971.5
2019-05-10T08:54:17.807Z,971.6
2019-05-10T08:55:23.278Z,971.6
2019-05-10T08:56:25.053Z,971.5
2019-05-10T08:57:29.287Z,971.6
2019-05-10T08:58:37.631Z,971.5
2019-05-10T08:59:38.908Z,971.6
2019-05-10T09:01:04.930Z,971.7
2019-05-10T09:02:15.330Z,971.7
2019-05-10T09:03:26.530Z,971.8
2019-05-10T09:04:42.649Z,971.7
2019-05-10T09:05:52.404Z,971.7
2019-05-10T09:07:02.641Z,971.7
2019-05-10T09:08:11.491Z,971.7
2019-05-10T09:09:22.694Z,971.8
2019-05-10T09:10:24.279Z,971.6
2019-05-10T09:11:25.559Z,971.7
2019-05-10T09:12:30.120Z,971.8
2019-05-10T09:13:42.223Z,971.8
2019-05-10T09:14:43.871Z,971.8
2019-05-10T09:15:56.729Z,971.8
2019-05-10T09:17:04.730Z,971.8
2019-05-10T09:18:08.914Z,971.8
2019-05-10T09:19:12.721Z,972
2019-05-10T09:20:26.263Z,971.9
2019-05-10T09:21:28.268Z,972
2019-05-10T09:22:38.876Z,972
2019-05-10T09:23:42.365Z,972.1
2019-05-10T09:24:50.023Z,972.1
2019-05-10T09:25:52.968Z,972
2019-05-10T09:26:57.835Z,972
2019-05-10T09:28:17.065Z,971.5
2019-05-10T09:29:18.810Z,972
2019-05-10T09:30:25.377Z,972
2019-05-10T09:31:26.741Z,972
2019-05-10T09:32:31.341Z,972.1
2019-05-10T09:33:34.727Z,972.1
2019-05-10T09:34:37.261Z,972.1
2019-05-10T09:35:44.855Z,972.1
2019-05-10T09:36:54.816Z,971.8
2019-05-10T09:38:01.868Z,972.1
2019-05-10T09:39:04.202Z,972.1
2019-05-10T09:40:13.145Z,972.3
2019-05-10T09:41:14.889Z,972.2
2019-05-10T09:42:32.036Z,972.2
2019-05-10T09:43:48.286Z,972.2
2019-05-10T09:44:52.178Z,972.3
2019-05-10T09:45:54.131Z,972.2
2019-05-10T09:46:57.943Z,972.3
2019-05-10T09:47:59.271Z,972.3
2019-05-10T09:49:15.370Z,972.3
2019-05-10T09:50:22.637Z,972.4
2019-05-10T09:51:30.410Z,972.5
2019-05-10T09:52:35.034Z,972.5
2019-05-10T09:53:40.641Z,972.4
2019-05-10T09:54:43.250Z,972.3
2019-05-10T09:55:52.135Z,972.4
2019-05-10T09:56:58.243Z,972.4
2019-05-10T09:58:01.030Z,972.5
2019-05-10T09:59:04.634Z,972.5
2019-05-10T10:00:09.001Z,972.4
2019-05-10T10:01:21.581Z,972.5
2019-05-10T10:02:33.766Z,972.3
2019-05-10T10:03:44.824Z,972.6
2019-05-10T10:04:50.739Z,972.4
2019-05-10T10:06:05.041Z,972.5
2019-05-10T10:07:07.180Z,972.6
2019-05-10T10:08:11.279Z,972.5
2019-05-10T10:09:12.745Z,972.6
2019-05-10T10:10:29.251Z,972.6
2019-05-10T10:11:31.740Z,972.6
2019-05-10T10:12:33.297Z,972.6
2019-05-10T10:13:46.030Z,972.6
2019-05-10T10:14:50.370Z,972.7
2019-05-10T10:15:53.275Z,972.6
2019-05-10T10:17:02.892Z,972.6
2019-05-10T10:18:05.552Z,972.6
2019-05-10T10:19:09.121Z,972.7
2019-05-10T10:20:10.405Z,972.7
2019-05-10T10:21:18.697Z,972.6
2019-05-10T10:22:31.017Z,972.7
2019-05-10T10:23:37.680Z,972.7
2019-05-10T10:24:41.859Z,972.7
2019-05-10T10:25:43.125Z,972.7
2019-05-10T10:26:44.368Z,972.6
2019-05-10T10:27:48.774Z,972.6
2019-05-10T10:28:59.983Z,972.6
2019-05-10T10:30:06.431Z,972.7
2019-05-10T10:31:33.278Z,972.6
2019-05-10T10:32:38.340Z,972.6
2019-05-10T10:33:54.245Z,972.6
2019-05-10T10:34:59.088Z,972.7
2019-05-10T10:36:07.610Z,972.6
2019-05-10T10:37:20.265Z,972.7
2019-05-10T10:38:31.169Z,972.6
2019-05-10T10:39:32.716Z,972.7
2019-05-10T10:40:44.020Z,972.7
2019-05-10T10:41:48.023Z,972.7
2019-05-10T10:42:49.826Z,972.7
2019-05-10T10:43:51.310Z,972.7
2019-05-10T10:44:53.071Z,972.7
2019-05-10T10:45:54.339Z,972.7
2019-05-10T10:46:58.804Z,972.8
2019-05-10T10:48:08.326Z,972.8
2019-05-10T10:49:17.723Z,972.7
2019-05-10T10:50:22.208Z,972.7
2019-05-10T10:51:31.951Z,972.6
2019-05-10T10:52:33.420Z,972.7
2019-05-10T10:53:34.942Z,972.7
2019-05-10T10:54:40.098Z,972.7
2019-05-10T10:55:54.256Z,972.7
2019-05-10T10:57:00.786Z,972.7
2019-05-10T10:58:02.387Z,972.7
2019-05-10T10:59:03.697Z,972.7
2019-05-10T11:00:06.973Z,972.8
2019-05-10T11:01:25.650Z,972.7
2019-05-10T11:02:34.385Z,972.7
2019-05-10T11:03:35.697Z,972.7
2019-05-10T11:04:48.746Z,972.8
2019-05-10T11:05:53.222Z,972.8
2019-05-10T11:07:11.166Z,972.8
2019-05-10T11:08:12.794Z,972.9
2019-05-10T11:09:14.859Z,972.8
2019-05-10T11:10:22.228Z,972.9
2019-05-10T11:11:23.672Z,972.9
2019-05-10T11:12:25.000Z,972.9
2019-05-10T11:13:45.581Z,972.9
2019-05-10T11:14:48.147Z,972.9
2019-05-10T11:15:52.375Z,972.9
2019-05-10T11:18:17.282Z,972.9
2019-05-10T11:20:33.617Z,973
2019-05-10T11:21:34.986Z,973
2019-05-10T11:22:41.756Z,972.9
2019-05-10T11:23:51.826Z,972.9
2019-05-10T11:25:09.368Z,973
2019-05-10T11:26:11.599Z,972.9
2019-05-10T11:27:17.792Z,973
2019-05-10T11:28:21.406Z,972.8
2019-05-10T11:29:30.805Z,973.1
2019-05-10T11:30:33.323Z,972.9
2019-05-10T11:31:34.681Z,973.1
2019-05-10T11:32:37.293Z,973.1
2019-05-10T11:33:41.073Z,973.1
2019-05-10T11:34:42.707Z,973
2019-05-10T11:35:44.314Z,973.1
2019-05-10T11:36:48.280Z,973
2019-05-10T11:37:52.155Z,973
2019-05-10T11:39:01.337Z,973
2019-05-10T11:40:03.170Z,973
2019-05-10T11:41:12.886Z,973
2019-05-10T11:42:22.047Z,973.1
2019-05-10T11:43:27.770Z,973.1
2019-05-10T11:44:29.083Z,973.1
2019-05-10T11:45:36.618Z,973
2019-05-10T11:46:38.058Z,973.2
2019-05-10T11:47:41.757Z,973.3
2019-05-10T11:48:43.267Z,973.3
2019-05-10T11:49:46.419Z,973.3
2019-05-10T11:50:47.956Z,973.3
2019-05-10T11:52:01.618Z,973.3
2019-05-10T11:55:07.347Z,973.4
2019-05-10T11:56:15.511Z,973.4
2019-05-10T11:57:21.722Z,973.4
2019-05-10T11:58:24.634Z,973.4
2019-05-10T12:01:27.848Z,973.3
2019-05-10T12:03:00.640Z,973.4
2019-05-10T12:04:12.884Z,973.4
2019-05-10T12:07:33.821Z,973.5
2019-05-10T12:08:41.511Z,973.5
2019-05-10T12:09:43.528Z,973.6
2019-05-10T12:11:02.158Z,973.6
2019-05-10T12:12:12.831Z,973.6
2019-05-10T12:13:24.792Z,973.6
2019-05-10T12:14:26.742Z,973.6
2019-05-10T12:15:31.752Z,973.6
2019-05-10T12:18:36.868Z,973.7
2019-05-10T12:19:51.488Z,973.7
2019-05-10T12:21:11.761Z,973.7
2019-05-10T12:24:33.389Z,973.7
2019-05-10T12:27:10.706Z,973.6
2019-05-10T12:28:21.771Z,973.6
2019-05-10T12:29:31.223Z,973.5
2019-05-10T12:30:37.230Z,973.5
2019-05-10T12:31:38.668Z,973.6
2019-05-10T12:32:58.730Z,973.6
2019-05-10T12:34:14.341Z,973.5
2019-05-10T12:35:17.874Z,973.6
2019-05-10T12:36:27.661Z,973.6
2019-05-10T12:37:39.395Z,973.5
2019-05-10T12:38:41.083Z,973.5
2019-05-10T12:39:42.392Z,973.5
2019-05-10T12:40:46.475Z,973.5
2019-05-10T12:41:52.945Z,973.5
2019-05-10T12:42:55.781Z,973.4
2019-05-10T12:44:07.227Z,973.4
2019-05-10T12:45:08.665Z,973.3
2019-05-10T12:46:11.596Z,973.4
2019-05-10T12:47:13.029Z,973.4
2019-05-10T12:48:16.519Z,973.3
2019-05-10T12:49:17.815Z,973.4
2019-05-10T12:50:19.116Z,973.4
2019-05-10T12:51:28.304Z,973.4
2019-05-10T12:52:32.767Z,973.2
2019-05-10T12:53:42.461Z,973.3
2019-05-10T12:54:46.299Z,973.4
2019-05-10T12:55:47.591Z,973.4
2019-05-10T12:56:48.913Z,973.3
2019-05-10T12:57:50.170Z,973.4
2019-05-10T12:58:59.949Z,973.3
2019-05-10T13:00:01.247Z,973.3
2019-05-10T13:01:03.593Z,973.4
2019-05-10T13:02:12.950Z,973.4
2019-05-10T13:03:31.170Z,973.4
2019-05-10T13:04:46.976Z,973.4
2019-05-10T13:05:53.670Z,973.4
2019-05-10T13:06:55.263Z,973.4
2019-05-10T13:07:56.584Z,973.4
2019-05-10T13:08:58.079Z,973.4
2019-05-10T13:10:07.869Z,973.5
2019-05-10T13:11:10.629Z,973.5
2019-05-10T13:12:12.131Z,973.5
2019-05-10T13:13:23.126Z,973.5
2019-05-10T13:14:32.312Z,973.6
2019-05-10T13:15:38.102Z,973.7
2019-05-10T13:16:39.418Z,973.7
2019-05-10T13:17:53.042Z,973.7
2019-05-10T13:18:56.178Z,973.7
2019-05-10T13:20:00.578Z,973.7
2019-05-10T13:21:02.340Z,973.8
2019-05-10T13:22:07.811Z,973.8
2019-05-10T13:23:18.379Z,973.9
2019-05-10T13:24:19.802Z,973.8
2019-05-10T13:25:21.297Z,973.9
2019-05-10T13:26:22.901Z,973.9
2019-05-10T13:27:24.261Z,973.9
2019-05-10T13:28:28.015Z,973.9
2019-05-10T13:29:29.915Z,973.9
2019-05-10T13:30:40.916Z,973.9
2019-05-10T13:31:48.178Z,974
2019-05-10T13:33:00.228Z,974
2019-05-10T13:34:04.417Z,974
2019-05-10T13:35:05.731Z,974
2019-05-10T13:36:07.028Z,974
2019-05-10T13:37:24.550Z,974
2019-05-10T13:38:36.749Z,974.1
2019-05-10T13:39:38.541Z,974.1
2019-05-10T13:40:47.691Z,974.1
2019-05-10T13:42:03.151Z,974.1
2019-05-10T13:43:04.840Z,974.2
2019-05-10T13:44:07.165Z,974.2
2019-05-10T13:45:14.276Z,974.2
2019-05-10T13:46:15.626Z,974.3
2019-05-10T13:47:17.111Z,974.3
2019-05-10T13:48:26.893Z,974.2
2019-05-10T13:49:28.371Z,974.1
2019-05-10T13:50:37.092Z,974.2
2019-05-10T13:51:38.423Z,974.2
2019-05-10T13:52:42.087Z,974.2
2019-05-10T13:53:53.771Z,974.2
2019-05-10T13:54:55.672Z,974.2
2019-05-10T13:56:05.337Z,974.2
2019-05-10T13:57:06.846Z,974.1
2019-05-10T13:58:08.583Z,974.2
2019-05-10T13:59:17.966Z,974.2
2019-05-10T14:00:32.934Z,974.2
2019-05-10T14:01:35.313Z,974.2
2019-05-10T14:02:36.655Z,974.1
2019-05-10T14:03:49.645Z,974.2
2019-05-10T14:04:55.515Z,974.2
2019-05-10T14:06:01.711Z,974.3
2019-05-10T14:07:03.183Z,974.2
2019-05-10T14:08:04.839Z,974.2
2019-05-10T14:09:11.407Z,974.2
2019-05-10T14:10:18.034Z,974.2
2019-05-10T14:11:23.943Z,974.2